S5DIM LJMS-LJLJ
Flight info
| Callsign | S5DIM |
|---|---|
| Flight time | N/A |
| Altitude | 8000 |
| Route | RATGO DCT MI DCT VALLU DCT OFROZ OFROZ1R |
| Aircraft | C182/L-SDGRY/S |
Departure
| Time | 2026-05-01 13:26 |
|---|---|
| Airport | Murska Sobota Airfield (LJMS) |
Arrival
| Time | N/A |
|---|---|
| Airport | Ljubljana Jože Pučnik Airport (LJLJ) |
| Time | Latitude | Longitude | Altitude | Speed | Heading |
|---|---|---|---|---|---|
| 2026-05-01 13:13 | 46.63123 | 16.17901 | 609 ft | 0 kts | 327° |
| 2026-05-01 13:23 | 46.63124 | 16.17900 | 609 ft | 0 kts | 296° |
| 2026-05-01 13:23 | 46.63121 | 16.17895 | 609 ft | 3 kts | 200° |
| 2026-05-01 13:23 | 46.63071 | 16.17896 | 607 ft | 12 kts | 188° |
| 2026-05-01 13:23 | 46.63046 | 16.17891 | 606 ft | 0 kts | 183° |
| 2026-05-01 13:24 | 46.63031 | 16.17890 | 606 ft | 7 kts | 181° |
| 2026-05-01 13:25 | 46.62992 | 16.17864 | 605 ft | 9 kts | 265° |
| 2026-05-01 13:25 | 46.62991 | 16.17547 | 608 ft | 53 kts | 269° |
| 2026-05-01 13:25 | 46.62988 | 16.16868 | 713 ft | 77 kts | 269° |
| 2026-05-01 13:25 | 46.63028 | 16.16017 | 854 ft | 92 kts | 275° |
| 2026-05-01 13:26 | 46.63323 | 16.15181 | 1015 ft | 97 kts | 317° |
| 2026-05-01 13:26 | 46.63970 | 16.14881 | 1175 ft | 101 kts | 359° |
| 2026-05-01 13:26 | 46.64684 | 16.15110 | 1263 ft | 111 kts | 17° |
| 2026-05-01 13:26 | 46.65399 | 16.15622 | 1236 ft | 124 kts | 48° |
| 2026-05-01 13:27 | 46.65175 | 16.16611 | 1228 ft | 120 kts | 161° |
| 2026-05-01 13:27 | 46.64331 | 16.16764 | 1070 ft | 127 kts | 178° |
| 2026-05-01 13:27 | 46.63091 | 16.17885 | 647 ft | 133 kts | 48° |
| 2026-05-01 13:28 | 46.63395 | 16.16525 | 1155 ft | 115 kts | 234° |
| 2026-05-01 13:28 | 46.62856 | 16.15695 | 1346 ft | 113 kts | 217° |
| 2026-05-01 13:29 | 46.61532 | 16.14575 | 1720 ft | 107 kts | 209° |
| 2026-05-01 13:29 | 46.60406 | 16.13258 | 1890 ft | 101 kts | 228° |
| 2026-05-01 13:30 | 46.58536 | 16.10193 | 2286 ft | 102 kts | 228° |
| 2026-05-01 13:31 | 46.57607 | 16.08655 | 2479 ft | 99 kts | 228° |
| 2026-05-01 13:31 | 46.56263 | 16.06432 | 2770 ft | 97 kts | 228° |
| 2026-05-01 13:32 | 46.55385 | 16.04979 | 2974 ft | 98 kts | 228° |
| 2026-05-01 13:33 | 46.54284 | 16.02363 | 3337 ft | 105 kts | 249° |
| 2026-05-01 13:33 | 46.53799 | 16.00414 | 3598 ft | 103 kts | 249° |
| 2026-05-01 13:34 | 46.53273 | 15.98294 | 3625 ft | 116 kts | 250° |
| 2026-05-01 13:34 | 46.52731 | 15.96099 | 3620 ft | 114 kts | 249° |
| 2026-05-01 13:35 | 46.52185 | 15.93920 | 3623 ft | 114 kts | 250° |
| 2026-05-01 13:35 | 46.51913 | 15.92829 | 3625 ft | 116 kts | 249° |
| 2026-05-01 13:35 | 46.51370 | 15.90651 | 3624 ft | 114 kts | 249° |
| 2026-05-01 13:36 | 46.51100 | 15.89566 | 3627 ft | 115 kts | 249° |
| 2026-05-01 13:36 | 46.50828 | 15.88474 | 3625 ft | 115 kts | 249° |
| 2026-05-01 13:36 | 46.50282 | 15.86291 | 3620 ft | 113 kts | 249° |
| 2026-05-01 13:37 | 46.50018 | 15.85236 | 3619 ft | 112 kts | 249° |
| 2026-05-01 13:37 | 46.49751 | 15.84166 | 3623 ft | 114 kts | 249° |
| 2026-05-01 13:37 | 46.49478 | 15.83083 | 3626 ft | 114 kts | 250° |
| 2026-05-01 13:37 | 46.49198 | 15.81968 | 3514 ft | 120 kts | 250° |
| 2026-05-01 13:38 | 46.48628 | 15.79671 | 3278 ft | 123 kts | 250° |
| 2026-05-01 13:38 | 46.48330 | 15.78485 | 3156 ft | 125 kts | 250° |
| 2026-05-01 13:38 | 46.48029 | 15.77298 | 3030 ft | 125 kts | 249° |
| 2026-05-01 13:39 | 46.47736 | 15.76136 | 2901 ft | 121 kts | 250° |
| 2026-05-01 13:39 | 46.47450 | 15.74987 | 2778 ft | 121 kts | 249° |
| 2026-05-01 13:39 | 46.47184 | 15.73918 | 2543 ft | 108 kts | 249° |
| 2026-05-01 13:39 | 46.46964 | 15.72892 | 2144 ft | 108 kts | 244° |
| 2026-05-01 13:40 | 46.46783 | 15.71829 | 1739 ft | 108 kts | 251° |
| 2026-05-01 13:40 | 46.46487 | 15.70886 | 1511 ft | 93 kts | 248° |
| 2026-05-01 13:40 | 46.46620 | 15.70038 | 1207 ft | 92 kts | 308° |
| 2026-05-01 13:40 | 46.47115 | 15.69462 | 927 ft | 89 kts | 325° |
| 2026-05-01 13:41 | 46.47575 | 15.69017 | 864 ft | 68 kts | 324° |
| 2026-05-01 13:41 | 46.47973 | 15.68622 | 893 ft | 82 kts | 323° |
| 2026-05-01 13:41 | 46.48484 | 15.68124 | 1107 ft | 89 kts | 323° |
| 2026-05-01 13:41 | 46.48891 | 15.67467 | 1363 ft | 90 kts | 289° |
| 2026-05-01 13:42 | 46.48919 | 15.66519 | 1522 ft | 102 kts | 252° |
| 2026-05-01 13:42 | 46.48506 | 15.65666 | 1638 ft | 105 kts | 227° |
| 2026-05-01 13:42 | 46.48031 | 15.64878 | 1793 ft | 102 kts | 229° |
| 2026-05-01 13:42 | 46.47577 | 15.64123 | 1961 ft | 98 kts | 229° |
| 2026-05-01 13:43 | 46.47135 | 15.63387 | 2119 ft | 97 kts | 229° |
| 2026-05-01 13:43 | 46.46689 | 15.62644 | 2267 ft | 98 kts | 228° |
| 2026-05-01 13:43 | 46.46238 | 15.61894 | 2416 ft | 99 kts | 229° |
| 2026-05-01 13:43 | 46.45786 | 15.61144 | 2566 ft | 98 kts | 228° |
| 2026-05-01 13:44 | 46.45345 | 15.60411 | 2711 ft | 95 kts | 229° |
| 2026-05-01 13:44 | 46.44906 | 15.59682 | 2867 ft | 99 kts | 228° |
| 2026-05-01 13:44 | 46.44449 | 15.58923 | 3009 ft | 98 kts | 228° |
| 2026-05-01 13:44 | 46.44005 | 15.58183 | 3160 ft | 97 kts | 229° |
| 2026-05-01 13:45 | 46.43567 | 15.57456 | 3307 ft | 94 kts | 228° |
| 2026-05-01 13:45 | 46.43126 | 15.56723 | 3462 ft | 99 kts | 229° |